Time;durP1;ratioP1;P1;durP2;ratioP2;P2;SDS_P1;SDS_P2;PMS_P1;PMS_P2;Temp;Humidity;BMP_temperature;BMP_pressure;BME280_temperature;BME280_humidity;BME280_pressure;Samples;Min_cycle;Max_cycle;Signal;HPM_P1;HPM_P2
2022/07/31 00:00:14;;;;;;;7.67;6.97;;;;;;;24.06;69.39;96870.44;6268749;22;20212;-74
2022/07/31 00:02:41;;;;;;;10.43;7.30;;;;;;;23.94;70.23;96854.94;6294089;22;20772;-74
2022/07/31 00:05:08;;;;;;;7.10;6.40;;;;;;;24.38;68.38;96856.50;6268178;22;20162;-74
2022/07/31 00:07:36;;;;;;;9.73;6.63;;;;;;;24.62;67.08;96853.13;6270048;22;20166;-75
2022/07/31 00:10:04;;;;;;;8.33;7.53;;;;;;;24.72;66.48;96836.09;6268610;22;20216;-75
2022/07/31 00:12:33;;;;;;;7.67;6.50;;;;;;;24.93;65.98;96840.97;6270047;22;20646;-74
2022/07/31 00:15:02;;;;;;;10.47;7.53;;;;;;;25.18;65.33;96837.34;6268507;22;20523;-74
2022/07/31 00:17:32;;;;;;;8.60;7.00;;;;;;;25.36;64.38;96835.38;6269320;22;20168;-74
2022/07/31 00:19:59;;;;;;;7.50;6.60;;;;;;;25.50;63.24;96826.75;6269157;22;20191;-75
2022/07/31 00:22:26;;;;;;;8.60;6.63;;;;;;;25.54;63.61;96825.44;6266534;22;20210;-75
2022/07/31 00:24:53;;;;;;;8.97;6.07;;;;;;;25.57;62.90;96832.22;6271143;22;20166;-75
2022/07/31 00:27:20;;;;;;;7.10;6.30;;;;;;;25.52;62.53;96815.97;6270274;22;20199;-75
2022/07/31 00:29:48;;;;;;;8.63;6.50;;;;;;;25.60;62.31;96814.16;6272032;22;20186;-75
2022/07/31 00:32:15;;;;;;;7.17;5.90;;;;;;;25.63;62.40;96808.53;6271393;22;20164;-76
2022/07/31 00:34:42;;;;;;;7.73;6.17;;;;;;;25.72;62.66;96809.31;6269022;22;20159;-75
2022/07/31 00:37:09;;;;;;;6.77;6.07;;;;;;;25.78;62.18;96809.47;6270928;22;20533;-75
2022/07/31 00:39:37;;;;;;;7.00;6.30;;;;;;;25.83;61.88;96804.50;6295103;22;20161;-74
2022/07/31 00:42:04;;;;;;;7.17;5.93;;;;;;;25.80;61.96;96804.00;6270631;22;20628;-75
2022/07/31 00:44:31;;;;;;;8.37;5.63;;;;;;;25.69;62.68;96805.19;6294158;22;20163;-76
2022/07/31 00:46:58;;;;;;;7.03;5.87;;;;;;;25.63;62.72;96794.41;6271985;22;20647;-74
2022/07/31 00:49:27;;;;;;;6.17;5.57;;;;;;;25.56;62.74;96783.66;6271157;22;20247;-76
2022/07/31 00:52:05;;;;;;;7.57;5.70;;;;;;;25.62;62.89;96782.97;6269159;22;20166;-74
2022/07/31 00:54:33;;;;;;;7.50;5.77;;;;;;;25.55;63.92;96782.00;6270789;22;20249;-73
2022/07/31 00:57:01;;;;;;;6.33;5.77;;;;;;;25.60;62.96;96755.78;6270956;22;20251;-74
2022/07/31 00:59:30;;;;;;;6.87;6.00;;;;;;;25.49;62.99;96760.63;6270525;22;20163;-75
2022/07/31 01:01:58;;;;;;;6.67;5.60;;;;;;;25.58;63.40;96744.53;6268654;22;20584;-74
2022/07/31 01:04:26;;;;;;;6.53;5.83;;;;;;;25.54;62.97;96745.03;6295441;22;20226;-74
2022/07/31 01:06:59;;;;;;;7.47;6.67;;;;;;;25.39;63.76;96738.75;6271225;22;20171;-74
2022/07/31 01:09:28;;;;;;;8.77;6.40;;;;;;;25.13;64.55;96727.50;6268539;22;20230;-74
2022/07/31 01:12:31;;;;;;;6.57;5.73;;;;;;;25.15;64.97;96728.16;6271673;22;20679;-75
2022/07/31 01:15:03;;;;;;;7.10;6.40;;;;;;;24.80;66.05;96716.09;6270065;22;20167;-74
2022/07/31 01:17:33;;;;;;;7.20;5.80;;;;;;;24.87;66.08;96730.34;6295477;22;20221;-73
2022/07/31 01:20:00;;;;;;;7.13;6.43;;;;;;;24.88;66.14;96718.75;6295883;22;20194;-76
2022/07/31 01:23:17;;;;;;;7.00;6.30;;;;;;;25.07;65.55;96723.72;6270122;22;20616;-73
2022/07/31 01:26:24;;;;;;;8.80;6.27;;;;;;;25.28;64.33;96726.66;6263018;22;20240;-75
2022/07/31 01:29:43;;;;;;;7.10;6.23;;;;;;;25.41;63.87;96737.59;6271391;22;20185;-77
2022/07/31 01:32:17;;;;;;;6.83;6.10;;;;;;;25.55;62.67;96725.47;6188656;22;20649;-76
2022/07/31 01:35:15;;;;;;;6.40;5.80;;;;;;;25.52;62.86;96724.00;6268998;22;20175;-74
2022/07/31 01:37:53;;;;;;;9.50;5.53;;;;;;;25.24;63.24;96721.88;6269295;22;20541;-74
2022/07/31 01:40:47;;;;;;;5.80;5.30;;;;;;;25.18;63.53;96711.94;6267841;22;20647;-73
2022/07/31 01:43:18;;;;;;;6.80;5.93;;;;;;;25.24;63.53;96708.63;6271699;22;20635;-74
2022/07/31 01:45:49;;;;;;;6.90;6.30;;;;;;;25.32;62.78;96703.28;6271195;22;20797;-75
2022/07/31 01:48:17;;;;;;;8.27;6.23;;;;;;;25.32;63.34;96685.56;6268635;22;20174;-73
2022/07/31 01:50:48;;;;;;;9.80;6.77;;;;;;;25.18;63.33;96683.63;6271420;22;20171;-74
2022/07/31 01:53:19;;;;;;;10.67;6.33;;;;;;;25.04;63.39;96702.81;6269591;22;20167;-74
2022/07/31 01:55:50;;;;;;;8.13;6.07;;;;;;;25.14;63.68;96713.28;6269471;22;20638;-74
2022/07/31 01:58:35;;;;;;;6.87;5.63;;;;;;;25.22;62.51;96708.78;6268448;22;20166;-73
2022/07/31 02:01:08;;;;;;;6.47;5.83;;;;;;;25.25;63.22;96708.44;6268273;22;20203;-74
2022/07/31 02:03:40;;;;;;;6.37;5.87;;;;;;;25.42;62.48;96707.44;6269647;22;20221;-74
2022/07/31 02:06:15;;;;;;;6.40;5.50;;;;;;;25.35;62.46;96690.50;6267958;22;20163;-74
2022/07/31 02:08:46;;;;;;;6.33;5.57;;;;;;;25.29;62.40;96685.88;6295699;22;20189;-73
2022/07/31 02:11:18;;;;;;;6.60;5.90;;;;;;;25.37;63.29;96688.53;6267950;22;20194;-73
2022/07/31 02:13:47;;;;;;;6.47;5.87;;;;;;;25.44;62.44;96692.19;6270661;22;20270;-74
2022/07/31 02:16:16;;;;;;;6.77;6.07;;;;;;;25.51;62.49;96693.16;6270771;22;20191;-74
2022/07/31 02:18:48;;;;;;;6.23;5.63;;;;;;;25.33;62.43;96695.16;6242170;22;20179;-75
2022/07/31 02:21:24;;;;;;;7.07;5.90;;;;;;;25.40;62.13;96682.88;6271258;22;20635;-75
2022/07/31 02:23:52;;;;;;;5.90;5.40;;;;;;;25.40;62.08;96677.59;6267413;22;20582;-75
2022/07/31 02:26:21;;;;;;;7.70;5.43;;;;;;;25.47;62.15;96693.69;6265984;22;20563;-74
2022/07/31 02:28:51;;;;;;;6.93;6.30;;;;;;;25.30;63.34;96687.56;6270195;22;20222;-76
2022/07/31 02:31:21;;;;;;;5.93;5.33;;;;;;;25.28;62.32;96689.56;6243684;22;20715;-74
2022/07/31 02:33:49;;;;;;;7.20;6.20;;;;;;;25.34;62.63;96694.19;6295863;22;20207;-78
2022/07/31 02:36:20;;;;;;;7.30;6.60;;;;;;;25.29;63.04;96696.50;6267855;22;20172;-76
2022/07/31 02:38:49;;;;;;;6.00;5.50;;;;;;;25.30;63.33;96707.94;6295316;22;20170;-76
2022/07/31 02:41:17;;;;;;;6.40;5.83;;;;;;;25.28;63.22;96708.13;6267249;22;20194;-75
2022/07/31 02:43:45;;;;;;;6.17;5.57;;;;;;;25.12;63.24;96720.56;6295022;22;20783;-75
2022/07/31 02:46:21;;;;;;;6.83;6.20;;;;;;;24.86;63.90;96715.44;6243064;22;20695;-76
2022/07/31 02:48:50;;;;;;;6.47;5.93;;;;;;;24.62;65.23;96723.34;6293795;22;20245;-76
2022/07/31 02:51:19;;;;;;;8.07;7.27;;;;;;;24.39;66.54;96727.59;6269276;22;20648;-75
2022/07/31 02:53:47;;;;;;;7.83;6.57;;;;;;;24.35;67.02;96726.28;6267519;22;20168;-74
2022/07/31 02:56:15;;;;;;;8.70;7.80;;;;;;;23.96;68.54;96731.28;6269020;22;20172;-73
2022/07/31 02:58:42;;;;;;;9.53;7.77;;;;;;;24.00;68.57;96728.16;6267062;22;20162;-74
2022/07/31 03:01:36;;;;;;;8.40;7.50;;;;;;;23.99;68.87;96726.47;6269689;22;20444;-73
2022/07/31 03:04:04;;;;;;;8.40;7.67;;;;;;;23.85;69.74;96727.09;6294628;22;20663;-74
2022/07/31 03:06:31;;;;;;;9.73;7.77;;;;;;;23.95;69.48;96730.44;6267128;22;20162;-74
2022/07/31 03:08:58;;;;;;;8.80;7.90;;;;;;;24.05;68.75;96730.34;6269017;22;20167;-74
2022/07/31 03:11:26;;;;;;;9.20;8.33;;;;;;;24.12;68.70;96750.72;6267031;22;20223;-76
2022/07/31 03:13:57;;;;;;;9.03;7.97;;;;;;;24.10;68.27;96755.34;6268641;22;20161;-74
2022/07/31 03:16:25;;;;;;;9.73;8.80;;;;;;;24.12;68.77;96752.53;6267609;22;20188;-74
2022/07/31 03:18:55;;;;;;;10.23;9.17;;;;;;;23.88;68.82;96747.94;6269725;22;20166;-75
2022/07/31 03:21:23;;;;;;;10.47;8.70;;;;;;;23.98;68.99;96750.47;6270630;22;20162;-75
2022/07/31 03:23:51;;;;;;;11.30;9.03;;;;;;;23.93;68.76;96753.56;6292839;22;20219;-74
2022/07/31 03:26:21;;;;;;;12.00;9.33;;;;;;;23.53;70.62;96740.19;6268581;22;20210;-74
2022/07/31 03:28:48;;;;;;;12.70;9.77;;;;;;;23.60;70.43;96740.34;6268355;22;20170;-74
2022/07/31 03:31:15;;;;;;;10.37;9.33;;;;;;;23.29;71.21;96745.25;6270276;22;20165;-75
2022/07/31 03:33:43;;;;;;;10.87;9.77;;;;;;;23.39;70.95;96759.22;6293328;22;20242;-75
2022/07/31 03:36:12;;;;;;;11.23;10.03;;;;;;;23.68;69.37;96754.44;6293610;22;20193;-75
2022/07/31 03:38:39;;;;;;;10.33;8.97;;;;;;;23.96;68.52;96763.84;6268865;22;20181;-75
2022/07/31 03:41:20;;;;;;;13.70;9.90;;;;;;;24.29;67.67;96767.47;6266719;22;20192;-74
2022/07/31 03:43:48;;;;;;;9.87;8.80;;;;;;;24.30;67.19;96761.16;6269985;22;20270;-74
2022/07/31 03:46:20;;;;;;;10.70;8.43;;;;;;;24.29;66.79;96758.69;6292526;22;20646;-72
2022/07/31 03:48:50;;;;;;;10.27;9.00;;;;;;;24.18;67.43;96765.94;6294276;22;20193;-75
2022/07/31 03:51:20;;;;;;;8.93;7.83;;;;;;;24.37;66.65;96762.19;6268234;22;20624;-75
2022/07/31 03:53:48;;;;;;;9.57;8.50;;;;;;;24.40;66.78;96763.69;6242145;22;20161;-72
2022/07/31 03:56:34;;;;;;;9.50;8.43;;;;;;;24.53;66.60;96750.78;6270063;22;20168;-73
2022/07/31 03:59:02;;;;;;;12.33;10.93;;;;;;;24.67;65.84;96766.03;6266003;22;20170;-74
2022/07/31 04:01:31;;;;;;;10.57;8.43;;;;;;;24.72;66.20;96761.09;6268435;22;20172;-73
2022/07/31 04:04:29;;;;;;;9.57;8.40;;;;;;;24.65;66.00;96752.97;6267973;22;20209;-74
2022/07/31 04:07:03;;;;;;;9.23;8.43;;;;;;;24.54;66.31;96737.41;6292510;22;20175;-75
2022/07/31 04:09:30;;;;;;;10.20;8.63;;;;;;;24.40;67.26;96740.69;6268411;22;20171;-74
2022/07/31 04:11:58;;;;;;;10.07;8.63;;;;;;;24.27;67.57;96742.97;6266470;22;20166;-76
2022/07/31 04:14:25;;;;;;;10.23;8.83;;;;;;;24.35;67.20;96742.16;6268568;22;20190;-74
2022/07/31 04:16:52;;;;;;;8.83;8.10;;;;;;;24.29;67.59;96737.53;6266962;22;20180;-75
2022/07/31 04:19:19;;;;;;;9.97;8.30;;;;;;;24.06;68.24;96740.78;6267843;22;20169;-75
2022/07/31 04:21:49;;;;;;;11.53;8.70;;;;;;;24.11;67.88;96745.59;6268380;22;20169;-76
2022/07/31 04:24:17;;;;;;;9.87;8.67;;;;;;;23.95;68.60;96745.47;6266960;22;20724;-75
2022/07/31 04:26:54;;;;;;;10.40;9.13;;;;;;;23.95;68.27;96742.81;6268482;22;20242;-75
2022/07/31 04:29:27;;;;;;;9.03;8.13;;;;;;;24.07;68.08;96749.53;6266713;22;20169;-75
2022/07/31 04:31:54;;;;;;;9.93;8.97;;;;;;;23.95;68.87;96746.31;6269991;22;20171;-74
2022/07/31 04:34:29;;;;;;;9.50;8.50;;;;;;;23.80;69.48;96742.59;6242028;22;20193;-76
2022/07/31 04:36:56;;;;;;;9.43;8.47;;;;;;;23.80;68.77;96741.78;6293152;22;20701;-74
2022/07/31 04:39:23;;;;;;;9.40;8.43;;;;;;;23.76;69.01;96749.19;6268729;22;20197;-74
2022/07/31 04:41:50;;;;;;;15.67;8.93;;;;;;;23.83;69.18;96755.53;6292404;22;20228;-74
2022/07/31 04:44:19;;;;;;;9.67;8.60;;;;;;;23.91;69.16;96752.91;6294070;22;20206;-74
2022/07/31 04:47:00;;;;;;;8.93;8.13;;;;;;;24.23;68.09;96757.53;6266879;22;20487;-77
2022/07/31 04:49:31;;;;;;;9.20;8.03;;;;;;;24.78;66.41;96765.75;6268478;22;20166;-73
2022/07/31 04:52:00;;;;;;;8.33;7.53;;;;;;;25.34;63.66;96762.28;6268658;22;20165;-74
2022/07/31 04:54:28;;;;;;;8.97;8.13;;;;;;;25.79;63.08;96763.38;6270027;22;20515;-75
2022/07/31 04:56:58;;;;;;;8.37;7.47;;;;;;;26.09;61.22;96758.31;6268543;22;20651;-76
2022/07/31 04:59:25;;;;;;;7.77;6.80;;;;;;;26.08;61.03;96762.78;6292423;22;20215;-73
2022/07/31 05:02:13;;;;;;;8.33;7.20;;;;;;;26.02;61.09;96770.59;6273203;22;20164;-75
2022/07/31 05:04:40;;;;;;;7.43;6.77;;;;;;;26.42;60.32;96763.28;6267361;22;20202;-76
2022/07/31 05:07:07;;;;;;;8.63;7.57;;;;;;;26.50;59.76;96763.22;6269117;22;20628;-75
2022/07/31 05:09:34;;;;;;;9.03;7.33;;;;;;;26.32;60.25;96769.81;6269675;22;20169;-74
2022/07/31 05:12:04;;;;;;;9.40;7.23;;;;;;;26.22;60.78;96769.19;6269056;22;20238;-78
2022/07/31 05:14:32;;;;;;;7.33;6.60;;;;;;;26.17;60.04;96767.06;6295574;22;20165;-77
2022/07/31 05:16:59;;;;;;;8.03;6.60;;;;;;;26.10;59.20;96762.63;6268417;22;20164;-72
2022/07/31 05:19:40;;;;;;;7.50;6.80;;;;;;;26.21;57.75;96756.94;6270467;22;20167;-78
2022/07/31 05:22:24;;;;;;;9.60;7.50;;;;;;;26.54;58.28;96755.75;6270078;22;20612;-77
2022/07/31 05:25:08;;;;;;;8.83;6.17;;;;;;;26.74;57.03;96748.16;6267233;22;20192;-77
2022/07/31 05:27:35;;;;;;;8.57;6.27;;;;;;;27.20;54.55;96749.81;6268777;22;20192;-77
2022/07/31 05:30:08;;;;;;;7.73;6.93;;;;;;;27.47;53.14;96751.88;6267678;22;20188;-76
2022/07/31 05:32:36;;;;;;;6.77;6.17;;;;;;;27.34;52.97;96762.31;6269501;22;20168;-76
2022/07/31 05:35:04;;;;;;;7.50;6.80;;;;;;;27.12;54.08;96756.00;6268527;22;20515;-77
2022/07/31 05:37:32;;;;;;;7.23;6.53;;;;;;;27.15;55.19;96758.31;6293534;22;20160;-77
2022/07/31 05:40:06;;;;;;;6.90;6.20;;;;;;;27.46;53.61;96768.03;6243953;22;20191;-74
2022/07/31 05:43:02;;;;;;;7.47;6.77;;;;;;;27.13;54.24;96770.13;6269445;22;20192;-74
2022/07/31 05:45:50;;;;;;;8.80;6.80;;;;;;;27.07;54.10;96771.69;6264623;22;20172;-75
2022/07/31 05:48:17;;;;;;;7.40;6.37;;;;;;;26.98;54.34;96774.56;6294915;22;20229;-75
2022/07/31 05:50:46;;;;;;;7.80;6.57;;;;;;;27.25;54.39;96769.53;6294171;22;20533;-74
2022/07/31 05:53:14;;;;;;;7.10;6.50;;;;;;;27.17;54.05;96748.31;6269382;22;20168;-73
2022/07/31 05:56:00;;;;;;;7.60;6.90;;;;;;;27.26;53.33;96757.88;6268593;22;20171;-73
2022/07/31 05:58:40;;;;;;;7.70;6.43;;;;;;;27.69;53.84;96750.16;6270265;22;20214;-75
2022/07/31 06:01:08;;;;;;;7.47;6.50;;;;;;;28.17;51.58;96757.63;6293803;22;20195;-75
2022/07/31 06:03:39;;;;;;;7.00;6.30;;;;;;;28.24;51.20;96766.50;6293921;22;20239;-74
2022/07/31 06:06:21;;;;;;;7.60;6.83;;;;;;;28.42;49.74;96755.47;6243742;22;20255;-78
2022/07/31 06:08:49;;;;;;;7.00;6.30;;;;;;;28.60;49.82;96756.72;6267473;22;20628;-79
2022/07/31 06:11:16;;;;;;;6.93;6.23;;;;;;;28.59;50.14;96752.41;6269283;22;20547;-76
2022/07/31 06:13:43;;;;;;;7.73;7.00;;;;;;;29.10;48.32;96750.41;6267523;22;20165;-75
2022/07/31 06:16:20;;;;;;;7.57;6.60;;;;;;;29.30;47.56;96750.63;6270509;22;20171;-75
2022/07/31 06:18:48;;;;;;;6.77;6.17;;;;;;;29.38;46.63;96754.00;6268746;22;20172;-76
2022/07/31 06:21:17;;;;;;;6.93;6.23;;;;;;;29.53;46.55;96751.22;6267462;22;20255;-75
2022/07/31 06:23:43;;;;;;;8.20;6.20;;;;;;;29.86;46.32;96751.47;6217803;22;20216;-76
2022/07/31 06:26:33;;;;;;;8.60;6.67;;;;;;;29.63;46.50;96738.34;6267956;22;20225;-76
2022/07/31 06:29:00;;;;;;;8.33;6.87;;;;;;;29.28;46.95;96753.50;6268734;22;20161;-74
2022/07/31 06:31:28;;;;;;;6.20;5.67;;;;;;;29.27;46.06;96756.34;6267991;22;20164;-75
2022/07/31 06:33:57;;;;;;;6.90;6.20;;;;;;;28.77;46.21;96715.47;6267328;22;20187;-75
2022/07/31 06:36:31;;;;;;;6.07;5.57;;;;;;;28.73;47.27;96754.19;6294228;22;20508;-75
2022/07/31 06:39:00;;;;;;;6.93;5.30;;;;;;;28.35;47.71;96755.38;6265750;22;20227;-76
2022/07/31 06:41:46;;;;;;;6.30;5.30;;;;;;;28.35;48.15;96763.38;6268153;22;20552;-76
2022/07/31 06:44:31;;;;;;;5.87;5.07;;;;;;;28.64;47.10;96758.00;6267536;22;20204;-74
2022/07/31 06:47:21;;;;;;;4.77;4.30;;;;;;;28.56;45.70;96744.78;6220306;22;20196;-76
2022/07/31 06:50:04;;;;;;;5.60;5.00;;;;;;;28.87;45.86;96749.81;6269529;22;20260;-78
2022/07/31 06:52:37;;;;;;;5.07;4.40;;;;;;;28.64;45.97;96757.16;6267871;22;20168;-77
2022/07/31 06:55:06;;;;;;;3.50;3.20;;;;;;;28.38;44.60;96759.50;6243942;22;20176;-74
2022/07/31 06:57:34;;;;;;;4.30;3.90;;;;;;;28.46;45.13;96757.53;6270750;22;20191;-75
2022/07/31 07:00:41;;;;;;;4.20;3.63;;;;;;;28.52;44.03;96756.78;6269146;22;20742;-77
2022/07/31 07:04:02;;;;;;;3.87;3.57;;;;;;;28.46;43.71;96757.53;6269780;22;20165;-79
2022/07/31 07:07:22;;;;;;;3.00;2.67;;;;;;;28.50;43.63;96750.81;6269738;22;20168;-74
2022/07/31 07:10:46;;;;;;;3.23;2.93;;;;;;;28.87;43.26;96753.28;6292763;22;20246;-78
2022/07/31 07:14:11;;;;;;;3.17;2.80;;;;;;;28.66;42.66;96755.13;6266249;22;20172;-76
2022/07/31 07:17:31;;;;;;;2.97;2.50;;;;;;;28.63;43.38;96751.00;6266600;22;20165;-75
2022/07/31 07:20:58;;;;;;;3.53;3.23;;;;;;;28.33;43.05;96762.72;6267925;22;20253;-75
2022/07/31 07:24:18;;;;;;;3.10;2.77;;;;;;;28.36;43.55;96769.53;6242876;22;20600;-74
2022/07/31 07:27:08;;;;;;;3.70;3.03;;;;;;;27.89;43.72;96752.09;6265747;22;20276;-74
2022/07/31 07:29:36;;;;;;;3.27;2.90;;;;;;;27.98;45.30;96756.34;6268728;22;20644;-75
2022/07/31 07:32:03;;;;;;;3.40;3.10;;;;;;;28.26;44.92;96748.50;6242780;22;20230;-76
2022/07/31 07:34:31;;;;;;;3.87;3.20;;;;;;;28.39;44.44;96743.31;6266200;22;20161;-75
2022/07/31 07:37:01;;;;;;;3.17;2.87;;;;;;;28.59;43.68;96744.41;6268350;22;20168;-73
2022/07/31 07:39:32;;;;;;;2.77;2.57;;;;;;;28.39;42.78;96753.97;6266846;22;20166;-73
2022/07/31 07:41:59;;;;;;;3.30;2.70;;;;;;;28.32;43.31;96763.72;6268473;22;20256;-74
2022/07/31 07:44:27;;;;;;;2.77;2.57;;;;;;;28.10;44.46;96756.69;6267576;22;20196;-73
2022/07/31 07:46:54;;;;;;;3.23;2.70;;;;;;;28.36;43.69;96754.34;6270806;22;20188;-74
2022/07/31 07:49:21;;;;;;;4.03;3.63;;;;;;;28.57;43.51;96754.41;6270717;22;20161;-78
2022/07/31 07:51:57;;;;;;;3.33;3.00;;;;;;;28.66;43.27;96755.97;6267325;22;20237;-73
2022/07/31 07:54:58;;;;;;;3.00;2.80;;;;;;;28.61;43.91;96758.34;6270888;22;20168;-76
2022/07/31 07:57:57;;;;;;;3.00;2.77;;;;;;;28.42;44.15;96753.59;6250536;22;20180;-76
2022/07/31 08:01:02;;;;;;;3.53;3.20;;;;;;;28.78;43.43;96753.63;6227396;22;20208;-74
2022/07/31 08:03:30;;;;;;;3.30;3.00;;;;;;;29.10;42.35;96752.28;6268149;22;20168;-72
2022/07/31 08:06:17;;;;;;;3.60;3.30;;;;;;;28.99;42.72;96750.94;6268344;22;20165;-76
2022/07/31 08:08:45;;;;;;;3.17;2.90;;;;;;;28.86;43.17;96741.00;6293466;22;20164;-74
2022/07/31 08:11:35;;;;;;;3.43;3.13;;;;;;;28.86;43.88;96748.97;6268080;22;20165;-76
2022/07/31 08:14:10;;;;;;;3.27;2.97;;;;;;;29.06;43.05;96749.16;6266064;22;20164;-76
2022/07/31 08:17:19;;;;;;;3.70;3.30;;;;;;;29.00;43.24;96744.59;6175449;23;20250;-77
2022/07/31 08:19:46;;;;;;;3.10;2.70;;;;;;;29.07;43.15;96749.97;6175041;23;20229;-75
2022/07/31 08:22:18;;;;;;;3.27;3.00;;;;;;;29.13;42.87;96744.72;6221079;22;20198;-74
2022/07/31 08:24:45;;;;;;;3.70;3.10;;;;;;;29.45;41.98;96744.16;6269833;22;20215;-76
2022/07/31 08:27:25;;;;;;;3.37;3.07;;;;;;;29.38;42.59;96748.66;6267616;22;21022;-72
2022/07/31 08:30:07;;;;;;;3.47;2.83;;;;;;;29.01;43.00;96748.91;6268055;22;20169;-75
2022/07/31 08:32:34;;;;;;;2.90;2.70;;;;;;;28.98;43.60;96749.28;6292666;22;20169;-74
2022/07/31 08:35:05;;;;;;;4.47;3.13;;;;;;;28.71;43.96;96747.38;6267211;22;20252;-70
2022/07/31 08:37:32;;;;;;;4.40;3.07;;;;;;;28.47;44.72;96745.03;6269963;22;20187;-72
2022/07/31 08:40:21;;;;;;;3.23;2.93;;;;;;;28.43;44.75;96741.94;6266051;22;20161;-74
2022/07/31 08:42:48;;;;;;;3.30;3.00;;;;;;;28.69;43.96;96746.75;6267551;22;20620;-75
2022/07/31 08:45:16;;;;;;;4.07;3.10;;;;;;;28.67;43.35;96730.94;6292106;22;20198;-76
2022/07/31 08:47:54;;;;;;;3.00;2.70;;;;;;;28.93;42.83;96749.84;6295036;22;20179;-73
2022/07/31 08:50:28;;;;;;;7.83;3.20;;;;;;;28.75;43.50;96744.16;6270788;22;20175;-74
2022/07/31 08:52:58;;;;;;;3.40;3.10;;;;;;;28.80;43.51;96746.25;6293342;22;20226;-75
2022/07/31 08:55:47;;;;;;;3.27;2.93;;;;;;;28.72;44.12;96749.03;6269117;22;20204;-74
2022/07/31 08:58:23;;;;;;;3.10;2.80;;;;;;;28.68;43.43;96748.59;6267604;22;20168;-75
2022/07/31 09:00:50;;;;;;;2.77;2.57;;;;;;;28.60;42.82;96748.72;6268934;22;20941;-76
2022/07/31 09:03:18;;;;;;;3.10;2.80;;;;;;;28.77;43.36;96736.78;6243543;22;20180;-75
2022/07/31 09:05:55;;;;;;;3.57;3.27;;;;;;;28.98;43.75;96734.13;6292992;22;20196;-75
2022/07/31 09:08:22;;;;;;;3.53;3.23;;;;;;;29.14;43.17;96732.22;6269474;22;20188;-75
2022/07/31 09:11:12;;;;;;;3.60;3.30;;;;;;;29.17;43.46;96726.50;6268494;22;20165;-75
2022/07/31 09:13:57;;;;;;;3.67;3.37;;;;;;;28.67;43.98;96738.09;6269917;22;20165;-76
2022/07/31 09:16:51;;;;;;;3.87;3.20;;;;;;;28.52;44.91;96726.66;6269733;22;20161;-74
2022/07/31 09:19:34;;;;;;;3.60;3.30;;;;;;;28.62;44.34;96719.22;6243563;22;20215;-75
2022/07/31 09:22:30;;;;;;;5.80;3.43;;;;;;;28.47;44.72;96711.25;6250189;22;20168;-76
2022/07/31 09:25:15;;;;;;;5.03;3.10;;;;;;;28.64;43.87;96725.19;6270939;22;20196;-76
2022/07/31 09:27:42;;;;;;;4.37;3.47;;;;;;;28.61;44.51;96717.53;6269315;22;20576;-78
2022/07/31 09:30:10;;;;;;;4.20;3.40;;;;;;;28.65;44.39;96722.31;6271626;22;20210;-76
2022/07/31 09:33:10;;;;;;;3.80;3.50;;;;;;;28.80;44.67;96720.41;6268982;22;20165;-75
2022/07/31 09:35:58;;;;;;;3.90;3.57;;;;;;;28.96;43.87;96709.50;6270219;22;20570;-76
2022/07/31 09:38:33;;;;;;;5.07;3.93;;;;;;;29.22;43.94;96703.59;6269413;22;20244;-76
2022/07/31 09:41:20;;;;;;;4.97;4.57;;;;;;;29.87;43.39;96711.19;6269280;22;20170;-75
2022/07/31 09:44:19;;;;;;;5.23;3.97;;;;;;;30.11;42.76;96694.66;6242784;22;20172;-77
2022/07/31 09:46:52;;;;;;;4.90;4.00;;;;;;;30.18;42.00;96706.19;6244203;22;20168;-75
2022/07/31 09:49:29;;;;;;;4.80;4.30;;;;;;;29.81;42.32;96705.81;6267405;22;20629;-76
2022/07/31 09:51:56;;;;;;;4.20;3.80;;;;;;;29.74;42.53;96698.59;6295225;22;20165;-78
2022/07/31 09:54:27;;;;;;;5.87;4.93;;;;;;;29.89;43.21;96705.66;6269000;22;20168;-77
2022/07/31 09:56:57;;;;;;;5.37;4.10;;;;;;;29.76;42.39;96714.41;6270450;22;20165;-72
2022/07/31 09:59:30;;;;;;;7.20;4.70;;;;;;;29.81;41.87;96708.50;6294932;22;20160;-74
2022/07/31 10:01:57;;;;;;;4.63;4.07;;;;;;;29.59;42.05;96718.41;6242432;22;20260;-74
2022/07/31 10:04:24;;;;;;;4.40;4.00;;;;;;;29.69;41.75;96713.53;6268362;22;20165;-74
2022/07/31 10:06:54;;;;;;;3.80;3.40;;;;;;;29.32;42.83;96703.22;6266586;22;20165;-74
2022/07/31 10:09:24;;;;;;;4.87;4.43;;;;;;;29.14;43.82;96710.88;6269250;22;20165;-74
2022/07/31 10:12:00;;;;;;;4.67;3.80;;;;;;;28.84;44.25;96715.53;6293014;22;20226;-74
2022/07/31 10:14:30;;;;;;;5.20;4.70;;;;;;;28.86;43.86;96713.50;6294215;22;20160;-74
2022/07/31 10:17:03;;;;;;;6.17;4.67;;;;;;;28.96;43.95;96701.47;6270413;22;20169;-74
2022/07/31 10:19:46;;;;;;;5.53;5.03;;;;;;;28.83;44.94;96697.91;6268623;22;20188;-73
2022/07/31 10:22:45;;;;;;;5.43;4.87;;;;;;;29.22;44.22;96708.91;6270031;22;20242;-74
2022/07/31 10:25:23;;;;;;;5.27;4.83;;;;;;;29.23;44.51;96704.38;6293407;22;20656;-74
2022/07/31 10:27:52;;;;;;;5.07;4.57;;;;;;;28.98;43.94;96694.13;6267485;22;20210;-73
2022/07/31 10:30:20;;;;;;;5.53;4.73;;;;;;;29.05;43.97;96685.34;6268680;22;20211;-74
2022/07/31 10:32:55;;;;;;;6.30;4.80;;;;;;;28.99;43.58;96689.63;6266629;22;20211;-75
2022/07/31 10:35:26;;;;;;;6.60;4.03;;;;;;;29.31;42.45;96680.22;6270054;22;20579;-75
2022/07/31 10:38:22;;;;;;;4.53;4.13;;;;;;;29.48;43.82;96681.56;6267183;22;20175;-74
2022/07/31 10:41:06;;;;;;;5.27;4.70;;;;;;;28.84;44.59;96684.38;6268856;22;20160;-74
2022/07/31 10:43:42;;;;;;;6.53;4.97;;;;;;;28.92;44.11;96676.22;6269858;22;20164;-75
2022/07/31 10:46:31;;;;;;;5.30;4.80;;;;;;;29.32;43.49;96681.88;6291378;22;20223;-78
2022/07/31 10:49:16;;;;;;;5.00;4.50;;;;;;;29.58;43.46;96676.69;6269203;22;20161;-77
2022/07/31 10:51:53;;;;;;;5.30;4.80;;;;;;;29.95;43.43;96662.13;6270151;22;20165;-81
2022/07/31 10:54:45;;;;;;;7.47;5.00;;;;;;;30.01;42.79;96672.84;6293061;22;20232;-76
2022/07/31 10:57:41;;;;;;;7.10;5.37;;;;;;;29.98;43.11;96672.41;6249516;22;20577;-77
2022/07/31 11:00:42;;;;;;;6.37;5.67;;;;;;;29.81;44.04;96671.94;6270376;22;20180;-79
2022/07/31 11:03:45;;;;;;;6.87;5.57;;;;;;;29.94;43.06;96676.50;6267285;22;20157;-78
2022/07/31 11:06:20;;;;;;;5.50;5.00;;;;;;;29.91;43.19;96672.38;6242917;22;20228;-77
2022/07/31 11:09:07;;;;;;;6.13;5.63;;;;;;;29.77;43.95;96668.00;6268461;22;20175;-74
2022/07/31 11:12:00;;;;;;;5.80;5.30;;;;;;;29.64;43.10;96670.56;6266627;22;20183;-74
2022/07/31 11:14:46;;;;;;;6.30;5.70;;;;;;;29.33;43.83;96670.19;6294770;22;20172;-75
2022/07/31 11:17:40;;;;;;;6.30;5.70;;;;;;;29.46;45.00;96659.59;6269385;22;20164;-76
2022/07/31 11:20:45;;;;;;;6.40;5.80;;;;;;;29.77;43.94;96673.34;6266934;22;20157;-75
2022/07/31 11:23:15;;;;;;;5.87;5.27;;;;;;;29.72;43.04;96667.75;6270214;22;20165;-76
2022/07/31 11:25:44;;;;;;;6.60;5.60;;;;;;;30.02;42.11;96674.50;6269117;22;20591;-76
2022/07/31 11:28:23;;;;;;;5.60;5.10;;;;;;;30.24;42.35;96676.00;6269424;22;20248;-76
2022/07/31 11:31:01;;;;;;;6.07;5.47;;;;;;;30.20;41.91;96665.91;6270712;22;20659;-72
2022/07/31 11:33:31;;;;;;;8.73;5.53;;;;;;;30.15;41.71;96666.50;6261242;22;20168;-74
2022/07/31 11:36:14;;;;;;;5.90;5.30;;;;;;;30.04;41.76;96664.44;6270942;22;20184;-79
2022/07/31 11:38:44;;;;;;;5.47;5.00;;;;;;;30.14;41.01;96656.88;6269303;22;20214;-75
2022/07/31 11:41:13;;;;;;;5.50;5.00;;;;;;;30.27;39.96;96658.75;6267781;22;20256;-78
2022/07/31 11:43:49;;;;;;;5.70;5.10;;;;;;;30.58;40.24;96640.34;6270421;22;20161;-74
2022/07/31 11:46:26;;;;;;;6.37;4.83;;;;;;;30.52;39.75;96658.00;6268364;22;20602;-75
2022/07/31 11:48:55;;;;;;;5.93;5.30;;;;;;;30.42;40.51;96646.06;6268429;22;20260;-77
2022/07/31 11:51:30;;;;;;;6.03;5.40;;;;;;;30.15;40.53;96639.78;6267178;22;20259;-75
2022/07/31 11:53:58;;;;;;;6.30;5.70;;;;;;;29.96;42.16;96642.41;6269652;22;20168;-78
2022/07/31 11:56:26;;;;;;;6.93;6.33;;;;;;;30.47;41.25;96632.91;6268439;22;20214;-77
2022/07/31 11:58:55;;;;;;;6.00;5.50;;;;;;;30.34;41.21;96616.84;6267709;22;20215;-75
2022/07/31 12:01:28;;;;;;;6.03;5.50;;;;;;;30.40;40.69;96630.22;6270626;22;20171;-77
2022/07/31 12:03:56;;;;;;;6.00;5.40;;;;;;;30.10;41.05;96622.72;6269397;22;20187;-78
2022/07/31 12:06:36;;;;;;;6.90;5.47;;;;;;;30.32;41.00;96633.09;6269045;22;20777;-76
2022/07/31 12:09:03;;;;;;;5.43;5.00;;;;;;;29.96;40.55;96626.38;6267970;22;20217;-77
2022/07/31 12:11:30;;;;;;;5.87;5.27;;;;;;;30.13;40.22;96631.16;6267632;22;20561;-76